createdAt,value
2017-05-11T00:00:56.388Z,92.80
2017-05-11T00:03:24.680Z,92.90
2017-05-11T00:05:52.998Z,92.90
2017-05-11T00:08:22.031Z,93.00
2017-05-11T00:10:50.398Z,93.00
2017-05-11T00:13:19.426Z,93.00
2017-05-11T00:15:47.717Z,93.00
2017-05-11T00:18:16.031Z,93.10
2017-05-11T00:20:45.068Z,93.00
2017-05-11T00:23:13.410Z,93.00
2017-05-11T00:25:42.444Z,93.00
2017-05-11T00:28:10.746Z,93.30
2017-05-11T00:30:39.047Z,93.00
2017-05-11T00:33:07.339Z,93.10
2017-05-11T00:35:36.415Z,93.10
2017-05-11T00:38:04.706Z,93.20
2017-05-11T00:40:33.729Z,93.30
2017-05-11T00:43:02.034Z,93.40
2017-05-11T00:45:30.331Z,93.40
2017-05-11T00:47:58.644Z,93.60
2017-05-11T00:50:27.671Z,93.60
2017-05-11T00:52:55.965Z,93.50
2017-05-11T00:55:24.266Z,93.60
2017-05-11T00:57:52.559Z,93.60
2017-05-11T01:00:20.862Z,93.70
2017-05-11T01:02:49.141Z,93.70
2017-05-11T01:05:18.171Z,93.70
2017-05-11T01:07:46.506Z,93.70
2017-05-11T01:10:15.542Z,93.80
2017-05-11T01:12:43.818Z,93.80
2017-05-11T01:15:12.134Z,93.90
2017-05-11T01:17:40.422Z,94.20
2017-05-11T01:20:08.710Z,93.90
2017-05-11T01:22:37.765Z,94.00
2017-05-11T01:25:06.049Z,93.90
2017-05-11T01:27:34.372Z,93.90
2017-05-11T01:30:02.659Z,94.20
2017-05-11T01:32:30.941Z,94.00
2017-05-11T01:34:59.247Z,94.00
2017-05-11T01:37:27.538Z,94.00
2017-05-11T01:39:55.843Z,94.00
2017-05-11T01:42:24.126Z,94.10
2017-05-11T01:44:53.154Z,94.00
2017-05-11T01:47:21.459Z,94.10
2017-05-11T01:49:49.741Z,94.00
2017-05-11T01:52:18.067Z,94.00
2017-05-11T01:54:47.094Z,94.00
2017-05-11T01:57:15.378Z,93.90
2017-05-11T01:59:43.686Z,93.90
2017-05-11T02:02:11.965Z,93.90
2017-05-11T02:04:40.922Z,93.90
2017-05-11T02:07:09.206Z,93.90
2017-05-11T02:09:37.482Z,93.90
2017-05-11T02:12:05.787Z,93.90
2017-05-11T02:14:34.077Z,94.10
2017-05-11T02:17:02.420Z,94.00
2017-05-11T02:19:30.697Z,94.10
2017-05-11T02:21:58.978Z,94.10
2017-05-11T02:24:27.282Z,94.10
2017-05-11T02:26:55.566Z,94.10
2017-05-11T02:29:23.887Z,94.10
2017-05-11T02:31:52.174Z,94.10
2017-05-11T02:34:20.463Z,94.20
2017-05-11T02:36:48.766Z,94.20
2017-05-11T02:39:17.062Z,94.20
2017-05-11T02:41:45.374Z,94.20
2017-05-11T02:44:13.654Z,94.30
2017-05-11T02:46:41.944Z,94.30
2017-05-11T02:49:10.260Z,94.30
2017-05-11T02:51:38.542Z,94.30
2017-05-11T02:54:06.878Z,94.20
2017-05-11T02:56:35.166Z,94.30
2017-05-11T02:59:03.450Z,94.30
2017-05-11T03:01:31.758Z,94.30
2017-05-11T03:04:00.043Z,94.30
2017-05-11T03:06:28.378Z,94.30
2017-05-11T03:08:56.676Z,94.30
2017-05-11T03:11:24.953Z,94.30
2017-05-11T03:13:53.254Z,94.20
2017-05-11T03:16:21.543Z,94.20
2017-05-11T03:18:50.912Z,94.40
2017-05-11T03:21:19.190Z,94.20
2017-05-11T03:23:47.480Z,94.20
2017-05-11T03:26:15.778Z,94.20
2017-05-11T03:28:44.810Z,94.30
2017-05-11T03:31:13.146Z,94.30
2017-05-11T03:33:41.430Z,94.30
2017-05-11T03:36:10.458Z,94.60
2017-05-11T03:38:38.766Z,94.30
2017-05-11T03:41:07.047Z,94.30
2017-05-11T03:43:35.382Z,94.40
2017-05-11T03:46:03.673Z,94.40
2017-05-11T03:48:31.961Z,94.40
2017-05-11T03:51:00.269Z,94.50
2017-05-11T03:53:28.555Z,94.50
2017-05-11T03:55:56.877Z,94.50
2017-05-11T03:58:25.161Z,94.30
2017-05-11T04:00:53.448Z,94.50
2017-05-11T04:03:21.758Z,94.50
2017-05-11T04:05:50.046Z,94.50
2017-05-11T04:08:18.367Z,94.40
2017-05-11T04:10:46.657Z,94.30
2017-05-11T04:13:14.945Z,94.20
2017-05-11T04:15:43.247Z,94.10
2017-05-11T04:18:11.534Z,94.10
2017-05-11T04:20:39.863Z,94.10
2017-05-11T04:23:08.145Z,94.20
2017-05-11T04:25:36.430Z,94.00
2017-05-11T04:28:04.735Z,93.90
2017-05-11T04:30:33.034Z,93.50
2017-05-11T04:33:01.363Z,92.80
2017-05-11T04:35:29.644Z,92.00
2017-05-11T04:37:57.934Z,90.90
2017-05-11T04:40:26.257Z,90.70
2017-05-11T04:42:54.544Z,88.40
2017-05-11T04:45:23.570Z,86.50
2017-05-11T04:47:51.870Z,84.80
2017-05-11T04:50:20.159Z,80.90
2017-05-11T04:52:48.490Z,59.20
2017-05-11T04:55:16.778Z,45.00
2017-05-11T04:57:45.068Z,36.80
2017-05-11T05:00:13.374Z,32.60
2017-05-11T05:02:41.661Z,31.00
2017-05-11T05:05:09.995Z,27.70
2017-05-11T05:07:38.282Z,27.90
2017-05-11T05:10:06.570Z,26.40
2017-05-11T05:12:34.901Z,27.00
2017-05-11T05:15:03.946Z,25.30
2017-05-11T05:17:32.226Z,24.70
2017-05-11T05:20:00.525Z,24.40
2017-05-11T05:22:28.811Z,23.70
2017-05-11T05:24:57.139Z,23.50
2017-05-11T05:27:25.447Z,22.60
2017-05-11T05:29:53.738Z,22.60
2017-05-11T05:32:22.081Z,22.70
2017-05-11T05:34:50.376Z,22.70
2017-05-11T05:37:18.674Z,21.60
2017-05-11T05:39:46.991Z,21.20
2017-05-11T05:42:16.031Z,21.30
2017-05-11T05:44:44.389Z,21.20
2017-05-11T05:47:12.681Z,20.40
2017-05-11T05:49:40.992Z,19.40
2017-05-11T05:52:09.308Z,19.10
2017-05-11T05:54:37.606Z,18.90
2017-05-11T05:57:05.939Z,19.10
2017-05-11T05:59:34.979Z,20.00
2017-05-11T06:02:03.268Z,20.10
2017-05-11T06:04:31.582Z,19.30
2017-05-11T06:06:59.873Z,19.60
2017-05-11T06:09:28.190Z,18.60
2017-05-11T06:11:56.478Z,17.70
2017-05-11T06:14:24.778Z,17.20
2017-05-11T06:16:53.086Z,18.00
2017-05-11T06:19:22.118Z,17.70
2017-05-11T06:21:50.455Z,17.40
2017-05-11T06:24:18.751Z,18.10
2017-05-11T06:26:47.787Z,19.80
2017-05-11T06:29:16.118Z,21.60
2017-05-11T06:31:45.141Z,23.20
2017-05-11T06:34:13.474Z,24.60
2017-05-11T06:36:41.766Z,24.80
2017-05-11T06:39:10.802Z,27.20
2017-05-11T06:41:39.109Z,27.80
2017-05-11T06:44:07.420Z,29.70
2017-05-11T06:46:36.470Z,33.70
2017-05-11T06:49:04.763Z,35.00
2017-05-11T06:51:33.090Z,35.20
2017-05-11T06:54:02.120Z,36.30
2017-05-11T06:56:30.411Z,36.20
2017-05-11T06:58:58.738Z,36.50
2017-05-11T07:01:27.769Z,37.50
2017-05-11T07:03:56.059Z,37.60
2017-05-11T07:06:24.376Z,38.40
2017-05-11T07:08:52.666Z,38.40
2017-05-11T07:11:21.738Z,38.30
2017-05-11T07:13:50.057Z,38.80
2017-05-11T07:16:18.345Z,38.40
2017-05-11T07:18:46.651Z,38.20
2017-05-11T07:21:14.942Z,38.80
2017-05-11T07:23:43.271Z,38.50
2017-05-11T07:26:11.554Z,38.90
2017-05-11T07:28:39.842Z,39.00
2017-05-11T07:31:08.162Z,38.70
2017-05-11T07:33:36.445Z,38.70
2017-05-11T07:36:04.735Z,38.70
2017-05-11T07:38:33.787Z,38.30
2017-05-11T07:41:02.082Z,38.90
2017-05-11T07:43:30.415Z,38.10
2017-05-11T07:45:58.702Z,38.90
2017-05-11T07:48:26.992Z,36.20
2017-05-11T07:50:55.331Z,35.00
2017-05-11T07:53:24.376Z,34.20
2017-05-11T07:55:52.666Z,35.20
2017-05-11T07:58:21.003Z,34.70
2017-05-11T08:00:49.299Z,34.80
2017-05-11T08:03:17.594Z,34.20
2017-05-11T08:05:45.930Z,34.20
2017-05-11T08:08:14.275Z,33.00
2017-05-11T08:10:42.571Z,33.80
2017-05-11T08:13:11.620Z,33.80
2017-05-11T08:15:39.991Z,33.00
2017-05-11T08:18:08.278Z,32.40
2017-05-11T08:20:36.586Z,32.70
2017-05-11T08:23:04.899Z,31.40
2017-05-11T08:25:33.199Z,30.60
2017-05-11T08:28:01.527Z,32.00
2017-05-11T08:30:29.830Z,32.10
2017-05-11T08:32:58.242Z,30.20
2017-05-11T08:35:26.538Z,29.70
2017-05-11T08:37:54.838Z,30.00
2017-05-11T08:40:23.187Z,29.10
2017-05-11T08:42:51.493Z,31.50
2017-05-11T08:45:19.818Z,30.20
2017-05-11T08:47:48.163Z,30.80
2017-05-11T08:50:17.224Z,30.00
2017-05-11T08:52:45.514Z,28.70
2017-05-11T08:55:13.850Z,30.40
2017-05-11T08:57:42.151Z,29.80
2017-05-11T09:00:10.471Z,30.30
2017-05-11T09:02:38.761Z,28.90
2017-05-11T09:05:07.812Z,27.80
2017-05-11T09:07:36.106Z,28.00
2017-05-11T09:10:04.414Z,28.30
2017-05-11T09:12:33.452Z,27.90
2017-05-11T09:15:01.760Z,29.20
2017-05-11T09:17:30.059Z,29.70
2017-05-11T09:19:58.362Z,31.00
2017-05-11T09:22:26.654Z,32.00
2017-05-11T09:24:54.979Z,30.80
2017-05-11T09:27:23.276Z,30.80
2017-05-11T09:29:51.566Z,27.90
2017-05-11T09:32:20.646Z,28.90
2017-05-11T09:34:49.686Z,29.80
2017-05-11T09:37:17.980Z,29.00
2017-05-11T09:39:46.288Z,28.50
2017-05-11T09:42:14.578Z,27.50
2017-05-11T09:44:43.326Z,28.60
2017-05-11T09:47:11.642Z,27.80
2017-05-11T09:49:39.944Z,27.70
2017-05-11T09:52:09.094Z,27.40
2017-05-11T09:54:37.391Z,27.50
2017-05-11T09:57:05.682Z,27.70
2017-05-11T09:59:33.994Z,27.80
2017-05-11T10:02:02.306Z,27.40
2017-05-11T10:04:30.599Z,27.20
2017-05-11T10:06:58.964Z,27.40
2017-05-11T10:09:27.260Z,25.30
2017-05-11T10:11:55.579Z,25.80
2017-05-11T10:14:23.872Z,25.40
2017-05-11T10:16:52.214Z,27.40
2017-05-11T10:19:21.250Z,27.00
2017-05-11T10:21:49.555Z,27.70
2017-05-11T10:24:17.884Z,25.80
2017-05-11T10:26:46.194Z,26.60
2017-05-11T10:29:14.490Z,25.80
2017-05-11T10:31:42.826Z,28.20
2017-05-11T10:34:11.115Z,28.50
2017-05-11T10:36:39.411Z,28.70
2017-05-11T10:39:07.742Z,28.30
2017-05-11T10:41:36.782Z,27.60
2017-05-11T10:44:05.068Z,27.30
2017-05-11T10:46:34.302Z,27.20
2017-05-11T10:49:02.589Z,27.60
2017-05-11T10:51:31.624Z,29.50
2017-05-11T10:53:59.966Z,29.20
2017-05-11T10:56:29.002Z,29.70
2017-05-11T10:58:57.294Z,27.50
2017-05-11T11:01:25.630Z,27.50
2017-05-11T11:03:54.670Z,27.40
2017-05-11T11:06:22.962Z,27.90
2017-05-11T11:08:51.271Z,26.90
2017-05-11T11:11:20.303Z,28.00
2017-05-11T11:13:48.620Z,28.60
2017-05-11T11:16:16.915Z,29.00
2017-05-11T11:18:45.222Z,28.00
2017-05-11T11:21:13.510Z,28.80
2017-05-11T11:23:41.839Z,28.10
2017-05-11T11:26:10.142Z,28.60
2017-05-11T11:28:39.170Z,27.50
2017-05-11T11:31:07.506Z,27.80
2017-05-11T11:33:36.551Z,28.30
2017-05-11T11:36:04.851Z,27.80
2017-05-11T11:38:33.189Z,25.20
2017-05-11T11:41:01.490Z,25.90
2017-05-11T11:43:29.787Z,25.70
2017-05-11T11:45:58.099Z,25.10
2017-05-11T11:48:27.148Z,24.80
2017-05-11T11:50:55.448Z,25.00
2017-05-11T11:53:23.786Z,23.90
2017-05-11T11:55:52.088Z,24.50
2017-05-11T11:58:20.379Z,24.80
2017-05-11T12:00:48.703Z,25.10
2017-05-11T12:03:17.736Z,26.60
2017-05-11T12:05:46.022Z,27.10
2017-05-11T12:08:14.351Z,25.30
2017-05-11T12:10:43.403Z,25.10
2017-05-11T12:13:11.697Z,25.30
2017-05-11T12:15:40.014Z,23.90
2017-05-11T12:18:08.327Z,24.50
2017-05-11T12:20:36.651Z,24.30
2017-05-11T12:23:04.941Z,22.50
2017-05-11T12:25:33.275Z,22.90
2017-05-11T12:28:02.045Z,24.50
2017-05-11T12:30:30.427Z,24.80
2017-05-11T12:32:58.773Z,23.60
2017-05-11T12:35:27.873Z,24.50
2017-05-11T12:37:56.170Z,22.80
2017-05-11T12:40:24.531Z,24.00
2017-05-11T12:42:52.830Z,23.40
2017-05-11T12:45:21.119Z,23.80
2017-05-11T12:47:49.446Z,23.10
2017-05-11T12:50:17.749Z,21.90
2017-05-11T12:52:46.045Z,21.70
2017-05-11T12:55:14.369Z,22.00
2017-05-11T12:57:42.665Z,20.80
2017-05-11T13:00:11.698Z,21.10
2017-05-11T13:02:40.035Z,21.20
2017-05-11T13:05:09.070Z,22.00
2017-05-11T13:07:37.361Z,22.40
2017-05-11T13:10:05.700Z,23.50
2017-05-11T13:12:34.738Z,22.60
2017-05-11T13:15:03.129Z,22.40
2017-05-11T13:17:31.459Z,22.00
2017-05-11T13:20:00.496Z,21.20
2017-05-11T13:22:28.793Z,22.20
2017-05-11T13:24:57.100Z,21.10
2017-05-11T13:27:26.138Z,21.20
2017-05-11T13:29:54.432Z,20.10
2017-05-11T13:32:22.764Z,20.70
2017-05-11T13:34:51.064Z,19.30
2017-05-11T13:37:19.354Z,20.90
2017-05-11T13:39:47.689Z,20.80
2017-05-11T13:42:16.713Z,20.80
2017-05-11T13:44:45.006Z,20.30
2017-05-11T13:47:13.332Z,20.90
2017-05-11T13:49:42.376Z,22.30
2017-05-11T13:52:10.672Z,22.00
2017-05-11T13:54:38.987Z,21.80
2017-05-11T13:57:08.038Z,22.50
2017-05-11T13:59:36.322Z,22.50
2017-05-11T14:02:04.644Z,22.60
2017-05-11T14:04:33.677Z,22.60
2017-05-11T14:07:02.007Z,23.50
2017-05-11T14:09:30.337Z,23.20
2017-05-11T14:11:58.640Z,23.10
2017-05-11T14:14:27.020Z,23.80
2017-05-11T14:16:55.350Z,23.50
2017-05-11T14:19:23.648Z,22.90
2017-05-11T14:21:51.954Z,23.20
2017-05-11T14:24:20.294Z,22.40
2017-05-11T14:26:48.582Z,21.30
2017-05-11T14:29:16.878Z,21.20
2017-05-11T14:31:45.218Z,21.50
2017-05-11T14:34:13.566Z,21.90
2017-05-11T14:36:41.858Z,21.40
2017-05-11T14:39:10.148Z,21.00
2017-05-11T14:41:39.232Z,21.10
2017-05-11T14:44:07.527Z,21.80
2017-05-11T14:46:35.825Z,22.00
2017-05-11T14:49:04.140Z,21.80
2017-05-11T14:51:32.484Z,22.00
2017-05-11T14:54:01.681Z,22.10
2017-05-11T14:56:29.978Z,21.60
2017-05-11T14:58:58.295Z,20.80
2017-05-11T15:01:26.629Z,20.90
2017-05-11T15:03:54.914Z,21.00
2017-05-11T15:06:23.215Z,21.90
2017-05-11T15:08:51.547Z,21.70
2017-05-11T15:11:19.840Z,21.70
2017-05-11T15:13:48.133Z,22.40
2017-05-11T15:16:16.465Z,22.60
2017-05-11T15:18:45.495Z,23.40
2017-05-11T15:21:13.799Z,23.30
2017-05-11T15:23:42.114Z,24.20
2017-05-11T15:26:11.145Z,25.10
2017-05-11T15:28:39.445Z,24.70
2017-05-11T15:31:07.819Z,25.30
2017-05-11T15:33:36.110Z,25.40
2017-05-11T15:36:04.390Z,24.40
2017-05-11T15:38:32.729Z,23.10
2017-05-11T15:41:01.022Z,23.80
2017-05-11T15:43:29.323Z,23.40
2017-05-11T15:45:57.650Z,23.50
2017-05-11T15:48:25.946Z,23.10
2017-05-11T15:50:54.231Z,23.40
2017-05-11T15:53:22.562Z,23.40
2017-05-11T15:55:50.850Z,23.20
2017-05-11T15:58:19.834Z,22.90
2017-05-11T16:00:48.150Z,23.60
2017-05-11T16:03:16.478Z,23.90
2017-05-11T16:05:44.779Z,23.70
2017-05-11T16:08:13.812Z,24.00
2017-05-11T16:10:42.153Z,24.80
2017-05-11T16:13:10.474Z,25.30
2017-05-11T16:15:38.755Z,24.90
2017-05-11T16:18:07.078Z,25.50
2017-05-11T16:20:35.390Z,25.60
2017-05-11T16:23:03.687Z,26.30
2017-05-11T16:25:32.031Z,26.30
2017-05-11T16:28:01.473Z,26.40
2017-05-11T16:30:29.759Z,26.40
2017-05-11T16:32:58.109Z,25.80
2017-05-11T16:35:26.406Z,26.50
2017-05-11T16:37:54.722Z,25.80
2017-05-11T16:40:23.057Z,26.00
2017-05-11T16:42:51.364Z,26.50
2017-05-11T16:45:19.662Z,25.60
2017-05-11T16:47:47.990Z,26.00
2017-05-11T16:50:16.281Z,26.40
2017-05-11T16:52:44.582Z,26.30
2017-05-11T16:55:12.910Z,27.10
2017-05-11T16:57:41.942Z,26.30
2017-05-11T17:00:10.234Z,26.60
2017-05-11T17:02:38.619Z,27.60
2017-05-11T17:05:06.908Z,27.10
2017-05-11T17:07:35.198Z,27.90
2017-05-11T17:10:03.526Z,27.80
2017-05-11T17:12:31.823Z,28.60
2017-05-11T17:15:00.110Z,29.30
2017-05-11T17:17:28.427Z,28.50
2017-05-11T17:19:57.471Z,28.90
2017-05-11T17:22:25.791Z,28.80
2017-05-11T17:24:58.481Z,29.10
2017-05-11T17:27:27.542Z,29.90
2017-05-11T17:29:55.836Z,29.70
2017-05-11T17:32:24.150Z,30.20
2017-05-11T17:34:52.442Z,30.20
2017-05-11T17:37:20.770Z,29.80
2017-05-11T17:39:53.379Z,31.00
2017-05-11T17:42:21.743Z,30.50
2017-05-11T17:44:50.775Z,30.30
2017-05-11T17:47:19.084Z,31.20
2017-05-11T17:49:47.400Z,30.50
2017-05-11T17:52:16.454Z,31.60
2017-05-11T17:54:44.758Z,31.80
2017-05-11T17:57:13.055Z,32.10
2017-05-11T17:59:42.128Z,32.10
2017-05-11T18:02:10.415Z,32.50
2017-05-11T18:04:39.469Z,33.20
2017-05-11T18:07:07.763Z,33.10
2017-05-11T18:09:36.074Z,33.10
2017-05-11T18:12:05.115Z,33.00
2017-05-11T18:14:33.432Z,33.70
2017-05-11T18:17:01.726Z,36.30
2017-05-11T18:19:30.960Z,36.20
2017-05-11T18:21:59.243Z,36.60
2017-05-11T18:24:27.564Z,35.60
2017-05-11T18:26:55.862Z,36.50
2017-05-11T18:29:24.951Z,35.10
2017-05-11T18:31:53.990Z,35.30
2017-05-11T18:34:22.294Z,35.20
2017-05-11T18:36:50.611Z,35.10
2017-05-11T18:39:19.647Z,35.50
2017-05-11T18:41:47.967Z,36.40
2017-05-11T18:44:16.265Z,36.20
2017-05-11T18:46:45.322Z,36.60
2017-05-11T18:49:13.619Z,36.30
2017-05-11T18:51:41.942Z,37.10
2017-05-11T18:54:10.246Z,37.20
2017-05-11T18:56:38.558Z,37.50
2017-05-11T18:59:06.852Z,37.90
2017-05-11T19:01:35.915Z,39.50
2017-05-11T19:04:04.262Z,38.00
2017-05-11T19:06:32.586Z,39.50
2017-05-11T19:09:01.602Z,38.00
2017-05-11T19:11:29.933Z,40.10
2017-05-11T19:13:58.232Z,37.10
2017-05-11T19:16:26.576Z,39.90
2017-05-11T19:18:54.932Z,38.20
2017-05-11T19:21:23.240Z,38.30
2017-05-11T19:23:51.746Z,38.80
2017-05-11T19:26:20.043Z,37.30
2017-05-11T19:28:48.363Z,38.40
2017-05-11T19:31:16.668Z,37.50
2017-05-11T19:33:45.046Z,38.00
2017-05-11T19:36:13.368Z,40.10
2017-05-11T19:38:41.727Z,44.60
2017-05-11T19:41:10.029Z,46.00
2017-05-11T19:43:39.101Z,51.20
2017-05-11T19:46:07.398Z,53.50
2017-05-11T19:48:36.470Z,60.30
2017-05-11T19:51:04.760Z,57.00
2017-05-11T19:53:33.859Z,60.60
2017-05-11T19:56:02.165Z,60.50
2017-05-11T19:58:31.233Z,56.90
2017-05-11T20:00:59.521Z,63.10
2017-05-11T20:03:27.833Z,64.40
2017-05-11T20:05:56.126Z,64.00
2017-05-11T20:08:24.443Z,61.90
2017-05-11T20:10:52.737Z,63.80
2017-05-11T20:13:21.029Z,63.70
2017-05-11T20:15:50.083Z,63.70
2017-05-11T20:18:18.374Z,63.60
2017-05-11T20:20:46.692Z,65.50
2017-05-11T20:23:15.722Z,65.10
2017-05-11T20:25:44.045Z,65.10
2017-05-11T20:28:12.340Z,66.90
2017-05-11T20:30:41.364Z,66.10
2017-05-11T20:33:09.678Z,66.40
2017-05-11T20:35:37.970Z,66.00
2017-05-11T20:38:06.302Z,65.00
2017-05-11T20:40:35.598Z,66.90
2017-05-11T20:43:03.882Z,66.50
2017-05-11T20:45:32.198Z,67.60
2017-05-11T20:48:00.486Z,69.70
2017-05-11T20:50:28.839Z,71.80
2017-05-11T20:52:57.130Z,71.70
2017-05-11T20:55:25.420Z,73.10
2017-05-11T20:57:53.736Z,73.00
2017-05-11T21:00:22.029Z,73.80
2017-05-11T21:02:50.358Z,74.10
2017-05-11T21:05:18.650Z,74.80
2017-05-11T21:07:47.683Z,74.00
2017-05-11T21:10:15.986Z,75.70
2017-05-11T21:12:44.275Z,73.50
2017-05-11T21:15:12.602Z,72.90
2017-05-11T21:17:40.894Z,73.40
2017-05-11T21:20:09.183Z,73.70
2017-05-11T21:22:37.503Z,75.00
2017-05-11T21:25:05.798Z,74.50
2017-05-11T21:27:34.866Z,75.60
2017-05-11T21:30:03.154Z,74.80
2017-05-11T21:32:31.441Z,75.00
2017-05-11T21:35:00.485Z,73.90
2017-05-11T21:37:28.766Z,75.00
2017-05-11T21:39:57.099Z,75.80
2017-05-11T21:42:26.138Z,75.60
2017-05-11T21:44:54.432Z,74.60
2017-05-11T21:47:22.738Z,74.60
2017-05-11T21:49:51.030Z,74.50
2017-05-11T21:52:20.102Z,73.80
2017-05-11T21:54:48.403Z,74.10
2017-05-11T21:57:17.430Z,74.30
2017-05-11T21:59:45.738Z,73.60
2017-05-11T22:02:14.031Z,73.70
2017-05-11T22:04:42.370Z,73.20
2017-05-11T22:07:10.657Z,73.40
2017-05-11T22:09:38.954Z,73.30
2017-05-11T22:12:07.258Z,73.30
2017-05-11T22:14:35.549Z,73.20
2017-05-11T22:17:04.606Z,73.30
2017-05-11T22:19:32.887Z,73.00
2017-05-11T22:22:01.259Z,74.10
2017-05-11T22:24:29.570Z,73.40
2017-05-11T22:26:57.850Z,73.30
2017-05-11T22:29:26.927Z,73.70
2017-05-11T22:31:55.214Z,73.30
2017-05-11T22:34:23.511Z,73.80
2017-05-11T22:36:52.557Z,74.10
2017-05-11T22:39:20.854Z,73.90
2017-05-11T22:41:49.170Z,74.10
2017-05-11T22:44:18.211Z,73.70
2017-05-11T22:46:46.503Z,74.30
2017-05-11T22:49:14.806Z,74.10
2017-05-11T22:51:43.098Z,74.10
2017-05-11T22:54:12.150Z,75.30
2017-05-11T22:56:40.443Z,75.00
2017-05-11T22:59:08.734Z,76.10
2017-05-11T23:01:37.043Z,77.20
2017-05-11T23:04:05.339Z,79.00
2017-05-11T23:06:33.674Z,78.10
2017-05-11T23:09:02.704Z,77.80
2017-05-11T23:11:30.994Z,77.50
2017-05-11T23:13:59.305Z,77.30
2017-05-11T23:16:27.595Z,77.20
2017-05-11T23:18:55.926Z,77.80
2017-05-11T23:21:24.209Z,77.30
2017-05-11T23:23:52.502Z,76.90
2017-05-11T23:26:20.810Z,77.70
2017-05-11T23:28:49.106Z,77.50
2017-05-11T23:31:18.176Z,77.60
2017-05-11T23:33:46.468Z,76.90
2017-05-11T23:36:15.498Z,77.40
2017-05-11T23:38:43.804Z,76.80
2017-05-11T23:41:12.094Z,76.20
2017-05-11T23:43:40.420Z,75.30
2017-05-11T23:46:08.721Z,75.60
2017-05-11T23:48:37.011Z,76.50
2017-05-11T23:51:05.327Z,77.70
2017-05-11T23:53:33.618Z,78.40
2017-05-11T23:56:02.684Z,79.30
2017-05-11T23:58:30.983Z,78.40
